EDLW

Dortmund Airport

Dortmund, Germany
METAR EDLW 201820Z 25003KT 220V290 CAVOK 23/09 Q1020
Observed Flight Rules
Apr-20 @ 18:20 UTC (12 minutes ago) Visual Flight Rules
Wind Visibility Clouds
250° at 3 knots 10,000+ meters
  • Clear skies
Temperatures Readings
Current 23°C / 73°F
Dewpoint 9°C / 48°F
Humidity 41%
Altimeter 30.12" Hg
Pressure 1020 hPa
Elevation 127
METAR EDLW 201820Z 25003KT 220V290 CAVOK 23/09 Q1020
Observed Flight Rules
Apr-20 @ 18:20 UTC
(12 minutes ago)
VFR
Wind Visibility
250° at 3 knots 10,000+ meters
Clouds
  • Clear skies
Temperature Dewpoint
23°C / 73°F 9°C / 48°F
Humidity Altimeter Pressure
41% 30.12" Hg 1020 hPa